Time;durP1;ratioP1;P1;durP2;ratioP2;P2;SDS_P1;SDS_P2;PMS_P1;PMS_P2;Temp;Humidity;BMP_temperature;BMP_pressure;BME280_temperature;BME280_humidity;BME280_pressure;Samples;Min_cycle;Max_cycle;Signal;HPM_P1;HPM_P2
2022/05/26 00:02:09;;;;;;;34.03;30.93;;;;;;;;;;5071839;28;20261;-79
2022/05/26 00:04:37;;;;;;;31.27;28.47;;;;;;;;;;5071904;28;20665;-80
2022/05/26 00:07:04;;;;;;;33.87;30.70;;;;;;;;;;5071705;28;20199;-80
2022/05/26 00:09:31;;;;;;;33.80;30.60;;;;;;;;;;5071752;28;20207;-79
2022/05/26 00:11:58;;;;;;;33.23;30.07;;;;;;;;;;5071555;28;20227;-79
2022/05/26 00:14:26;;;;;;;31.13;28.17;;;;;;;;;;5072102;28;20253;-80
2022/05/26 00:16:53;;;;;;;30.80;27.73;;;;;;;;;;5070336;28;20229;-80
2022/05/26 00:19:21;;;;;;;29.97;27.07;;;;;;;;;;5053330;28;20215;-80
2022/05/26 00:21:49;;;;;;;30.53;27.43;;;;;;;;;;5051901;28;20205;-80
2022/05/26 00:24:17;;;;;;;31.07;27.97;;;;;;;;;;5051427;28;20294;-80
2022/05/26 00:26:44;;;;;;;30.03;26.97;;;;;;;;;;5051843;28;20242;-80
2022/05/26 00:29:11;;;;;;;30.40;27.43;;;;;;;;;;5051364;28;20208;-80
2022/05/26 00:31:38;;;;;;;29.90;26.90;;;;;;;;;;5051837;28;20212;-80
2022/05/26 00:34:06;;;;;;;30.57;27.57;;;;;;;;;;5055310;28;20202;-80
2022/05/26 00:36:41;;;;;;;33.10;29.80;;;;;;;;;;5060465;28;20201;-79
2022/05/26 00:39:10;;;;;;;33.00;29.37;;;;;;;;;;5051480;28;20187;-80
2022/05/26 00:41:42;;;;;;;31.73;28.80;;;;;;;;;;5051494;28;20251;-79
2022/05/26 00:44:10;;;;;;;34.70;31.13;;;;;;;;;;5050862;28;20191;-80
2022/05/26 00:46:42;;;;;;;33.40;30.00;;;;;;;;;;5051999;28;20216;-80
2022/05/26 00:49:15;;;;;;;31.30;28.17;;;;;;;;;;5051461;28;20187;-80
2022/05/26 00:51:44;;;;;;;28.00;25.40;;;;;;;;;;5051489;28;20701;-80
2022/05/26 00:54:15;;;;;;;31.70;28.80;;;;;;;;;;5051422;28;20663;-80
2022/05/26 00:56:45;;;;;;;31.47;28.20;;;;;;;;;;5051481;28;20185;-79
2022/05/26 00:59:17;;;;;;;31.33;28.23;;;;;;;;;;5051097;28;20649;-79
2022/05/26 01:01:44;;;;;;;30.67;27.73;;;;;;;;;;5051625;28;20222;-79
2022/05/26 01:04:13;;;;;;;30.43;27.40;;;;;;;;;;5051318;28;20197;-79
2022/05/26 01:06:46;;;;;;;30.83;27.63;;;;;;;;;;5051053;28;20709;-79
2022/05/26 01:09:13;;;;;;;30.10;26.87;;;;;;;;;;5050903;28;20278;-79
2022/05/26 01:11:42;;;;;;;33.40;27.63;;;;;;;;;;5051334;28;20266;-79
2022/05/26 01:14:12;;;;;;;32.33;28.60;;;;;;;;;;5050734;28;20196;-79
2022/05/26 01:16:44;;;;;;;31.50;28.50;;;;;;;;;;5051118;28;20237;-79
2022/05/26 01:19:39;;;;;;;27.90;25.30;;;;;;;;;;5051331;28;20197;-79
2022/05/26 01:22:21;;;;;;;30.13;27.13;;;;;;;;;;5050855;28;20214;-79
2022/05/26 01:25:12;;;;;;;28.83;26.03;;;;;;;;;;5054269;28;20606;-79
2022/05/26 01:27:39;;;;;;;28.13;25.20;;;;;;;;;;5054892;28;20257;-79
2022/05/26 01:30:19;;;;;;;29.97;27.03;;;;;;;;;;5054800;28;20269;-79
2022/05/26 01:33:18;;;;;;;28.03;25.17;;;;;;;;;;5054574;28;20186;-80
2022/05/26 01:35:57;;;;;;;28.70;25.83;;;;;;;;;;5048477;28;20197;-79
2022/05/26 01:38:34;;;;;;;27.87;25.13;;;;;;;;;;5054624;28;20656;-79
2022/05/26 01:41:08;;;;;;;30.90;25.37;;;;;;;;;;5054639;28;20183;-79
2022/05/26 01:43:40;;;;;;;28.90;25.93;;;;;;;;;;5054497;28;20190;-79
2022/05/26 01:46:11;;;;;;;27.87;25.07;;;;;;;;;;5067191;28;20219;-79
2022/05/26 01:48:44;;;;;;;30.00;26.97;;;;;;;;;;5074396;28;20195;-79
2022/05/26 01:51:15;;;;;;;29.17;26.20;;;;;;;;;;5074129;28;20228;-80
2022/05/26 01:53:46;;;;;;;28.40;25.43;;;;;;;;;;5073677;28;20193;-79
2022/05/26 01:56:18;;;;;;;28.10;25.40;;;;;;;;;;5074422;28;20186;-80
2022/05/26 01:58:49;;;;;;;29.43;25.00;;;;;;;;;;5073775;28;20194;-79
2022/05/26 02:01:20;;;;;;;27.57;24.77;;;;;;;;;;5073986;28;20190;-79
2022/05/26 02:03:49;;;;;;;28.07;25.13;;;;;;;;;;5074014;28;20188;-79
2022/05/26 02:06:19;;;;;;;29.50;25.83;;;;;;;;;;5073824;28;20227;-79
2022/05/26 02:08:50;;;;;;;27.50;24.70;;;;;;;;;;5073871;28;20275;-79
2022/05/26 02:11:18;;;;;;;27.00;24.17;;;;;;;;;;5073643;28;20654;-79
2022/05/26 02:13:49;;;;;;;28.50;25.80;;;;;;;;;;5073476;28;20257;-79
2022/05/26 02:16:20;;;;;;;27.67;24.80;;;;;;;;;;5073555;28;20640;-79
2022/05/26 02:18:53;;;;;;;29.97;26.97;;;;;;;;;;5073255;28;20194;-79
2022/05/26 02:21:26;;;;;;;31.27;27.70;;;;;;;;;;5073758;28;20189;-79
2022/05/26 02:23:58;;;;;;;30.57;27.20;;;;;;;;;;5073283;28;20189;-79
2022/05/26 02:26:25;;;;;;;29.40;25.57;;;;;;;;;;5073465;28;20287;-79
2022/05/26 02:31:38;;;;;;;26.10;23.60;;;;;;;;;;5073892;28;20184;-79
2022/05/26 02:34:07;;;;;;;31.80;25.63;;;;;;;;;;5073152;28;20256;-79
2022/05/26 02:36:36;;;;;;;31.07;26.27;;;;;;;;;;5073572;28;20193;-79
2022/05/26 02:39:04;;;;;;;34.47;27.97;;;;;;;;;;5072832;28;20572;-79
2022/05/26 02:41:31;;;;;;;29.83;26.50;;;;;;;;;;5073171;28;20244;-79
2022/05/26 02:43:59;;;;;;;31.93;25.43;;;;;;;;;;5072956;28;20705;-79
2022/05/26 02:46:33;;;;;;;28.10;25.03;;;;;;;;;;5068933;28;20326;-80
2022/05/26 02:49:14;;;;;;;26.97;24.30;;;;;;;;;;5072892;28;20215;-80
2022/05/26 02:51:44;;;;;;;26.40;23.50;;;;;;;;;;5072761;28;20724;-79
2022/05/26 02:54:22;;;;;;;24.77;22.27;;;;;;;;;;5072665;28;20215;-79
2022/05/26 02:57:01;;;;;;;27.10;24.23;;;;;;;;;;5072916;28;20214;-80
2022/05/26 02:59:33;;;;;;;25.57;22.87;;;;;;;;;;5072792;28;20625;-80
2022/05/26 03:02:04;;;;;;;27.90;23.87;;;;;;;;;;5072880;28;20627;-80
2022/05/26 03:04:36;;;;;;;25.97;23.17;;;;;;;;;;5072379;28;20218;-79
2022/05/26 03:07:07;;;;;;;30.60;27.30;;;;;;;;;;5072177;28;20262;-79
2022/05/26 03:09:35;;;;;;;29.43;25.97;;;;;;;;;;5072722;28;20550;-80
2022/05/26 03:12:02;;;;;;;31.17;26.40;;;;;;;;;;5072445;28;20196;-80
2022/05/26 03:14:29;;;;;;;28.50;25.47;;;;;;;;;;5071886;28;20203;-80
2022/05/26 03:16:56;;;;;;;27.97;25.03;;;;;;;;;;5072090;28;20236;-79
2022/05/26 03:19:23;;;;;;;30.90;25.80;;;;;;;;;;5072512;28;20676;-80
2022/05/26 03:21:52;;;;;;;28.43;25.17;;;;;;;;;;5072016;28;20673;-79
2022/05/26 03:24:19;;;;;;;26.27;23.47;;;;;;;;;;5071913;28;20277;-80
2022/05/26 03:26:46;;;;;;;28.70;25.30;;;;;;;;;;5072063;28;20223;-79
2022/05/26 03:29:13;;;;;;;29.20;24.57;;;;;;;;;;5072223;28;20202;-82
2022/05/26 03:31:40;;;;;;;28.57;25.17;;;;;;;;;;5072368;28;20750;-79
2022/05/26 03:42:21;;;;;;;29.10;25.37;;;;;;;;;;5070774;28;20220;-79
2022/05/26 03:44:48;;;;;;;28.60;24.97;;;;;;;;;;5072079;28;20665;-78
2022/05/26 03:47:15;;;;;;;29.70;25.63;;;;;;;;;;5068423;28;20233;-79
2022/05/26 03:49:42;;;;;;;27.17;24.30;;;;;;;;;;5063997;28;20589;-79
2022/05/26 03:52:11;;;;;;;30.57;27.23;;;;;;;;;;5052190;28;20266;-79
2022/05/26 03:54:38;;;;;;;30.37;27.07;;;;;;;;;;5051605;28;20231;-79
2022/05/26 03:57:06;;;;;;;29.87;26.67;;;;;;;;;;5062876;28;20213;-81
2022/05/26 03:59:34;;;;;;;32.70;26.50;;;;;;;;;;5051505;28;20740;-79
2022/05/26 04:02:01;;;;;;;28.63;25.43;;;;;;;;;;5051835;28;20205;-78
2022/05/26 04:04:28;;;;;;;29.50;25.57;;;;;;;;;;5051859;28;20232;-79
2022/05/26 04:06:56;;;;;;;30.03;26.83;;;;;;;;;;5050200;28;20227;-79
2022/05/26 04:09:24;;;;;;;29.40;26.07;;;;;;;;;;5051874;28;20587;-78
2022/05/26 04:11:53;;;;;;;29.53;26.07;;;;;;;;;;5051541;28;20675;-79
2022/05/26 04:14:21;;;;;;;31.97;26.07;;;;;;;;;;5051850;28;20200;-81
2022/05/26 04:16:48;;;;;;;28.60;25.70;;;;;;;;;;5051519;28;20833;-79
2022/05/26 04:19:15;;;;;;;29.87;26.67;;;;;;;;;;5051576;28;20201;-79
2022/05/26 04:22:15;;;;;;;28.30;25.33;;;;;;;;;;5051816;28;20204;-79
2022/05/26 04:24:30;;;;;;;30.60;26.43;;;;;;;;;;5050848;28;20301;-79
2022/05/26 04:26:57;;;;;;;29.03;26.00;;;;;;;;;;5051534;28;20226;-79
2022/05/26 04:29:24;;;;;;;30.30;27.10;;;;;;;;;;5051453;28;20208;-79
2022/05/26 04:31:52;;;;;;;31.87;28.50;;;;;;;;;;5051463;28;20198;-79
2022/05/26 04:34:19;;;;;;;30.40;26.60;;;;;;;;;;5051439;28;20266;-79
2022/05/26 04:36:47;;;;;;;31.80;28.20;;;;;;;;;;5050242;28;20228;-79
2022/05/26 04:39:16;;;;;;;30.17;26.80;;;;;;;;;;5051482;28;20710;-79
2022/05/26 04:41:45;;;;;;;29.90;26.77;;;;;;;;;;5051819;28;20236;-79
2022/05/26 04:44:12;;;;;;;32.93;29.33;;;;;;;;;;5051611;28;20669;-79
2022/05/26 04:46:39;;;;;;;32.90;29.33;;;;;;;;;;5051596;28;20251;-78
2022/05/26 04:49:08;;;;;;;33.40;27.23;;;;;;;;;;5051051;28;20275;-79
2022/05/26 04:51:36;;;;;;;30.60;27.40;;;;;;;;;;5051759;28;20198;-78
2022/05/26 04:54:04;;;;;;;28.80;25.50;;;;;;;;;;5051532;28;20235;-78
2022/05/26 04:56:31;;;;;;;29.67;26.50;;;;;;;;;;5053797;28;20198;-79
2022/05/26 04:59:00;;;;;;;31.67;28.37;;;;;;;;;;5058784;28;20213;-79
2022/05/26 05:01:27;;;;;;;34.80;26.07;;;;;;;;;;5055386;28;20206;-79
2022/05/26 05:03:55;;;;;;;33.23;28.13;;;;;;;;;;5055180;28;20251;-79
2022/05/26 05:06:22;;;;;;;31.50;28.20;;;;;;;;;;5055043;28;20582;-79
2022/05/26 05:08:49;;;;;;;31.93;28.63;;;;;;;;;;5054931;28;20202;-79
2022/05/26 05:11:17;;;;;;;31.43;28.23;;;;;;;;;;5054939;28;20205;-79
2022/05/26 05:13:44;;;;;;;33.77;30.30;;;;;;;;;;5054776;28;20202;-79
2022/05/26 05:16:18;;;;;;;31.70;28.30;;;;;;;;;;5054611;28;20194;-79
2022/05/26 05:18:46;;;;;;;32.57;29.27;;;;;;;;;;5055037;28;20185;-79
2022/05/26 05:21:15;;;;;;;33.97;28.47;;;;;;;;;;5055116;28;20300;-78
2022/05/26 05:23:46;;;;;;;32.87;29.30;;;;;;;;;;5058522;28;20208;-79
2022/05/26 05:26:16;;;;;;;33.33;28.13;;;;;;;;;;5074991;28;20185;-79
2022/05/26 05:28:48;;;;;;;31.63;28.37;;;;;;;;;;5074916;28;20189;-79
2022/05/26 05:31:20;;;;;;;30.83;27.60;;;;;;;;;;5074924;28;20185;-79
2022/05/26 05:33:48;;;;;;;33.57;29.20;;;;;;;;;;5074433;28;20623;-78
2022/05/26 05:36:18;;;;;;;32.20;28.80;;;;;;;;;;5074771;28;20231;-79
2022/05/26 05:38:45;;;;;;;31.03;27.80;;;;;;;;;;5074292;28;20254;-79
2022/05/26 05:41:12;;;;;;;32.40;28.97;;;;;;;;;;5074238;28;20197;-79
2022/05/26 05:43:40;;;;;;;31.13;27.87;;;;;;;;;;5074451;28;20219;-79
2022/05/26 05:46:08;;;;;;;31.83;28.40;;;;;;;;;;5074653;28;20193;-79
2022/05/26 05:48:36;;;;;;;36.40;26.97;;;;;;;;;;5074462;28;20256;-79
2022/05/26 05:51:04;;;;;;;31.07;27.77;;;;;;;;;;5074016;28;20250;-78
2022/05/26 05:53:31;;;;;;;32.23;29.03;;;;;;;;;;5073938;28;20201;-79
2022/05/26 05:55:58;;;;;;;31.80;28.67;;;;;;;;;;5072451;28;20240;-79
2022/05/26 05:58:25;;;;;;;33.73;30.53;;;;;;;;;;5069271;28;20260;-79
2022/05/26 06:00:53;;;;;;;32.97;29.90;;;;;;;;;;5054287;28;20208;-79
2022/05/26 06:03:20;;;;;;;33.77;30.10;;;;;;;;;;5053908;28;20201;-79
2022/05/26 06:05:49;;;;;;;30.73;27.70;;;;;;;;;;5053945;28;20194;-79
2022/05/26 06:08:16;;;;;;;35.47;32.07;;;;;;;;;;5053397;28;20706;-79
2022/05/26 06:10:43;;;;;;;30.17;27.27;;;;;;;;;;5053497;28;20671;-79
2022/05/26 06:13:10;;;;;;;37.27;29.40;;;;;;;;;;5053708;28;20751;-79
2022/05/26 06:15:40;;;;;;;32.17;29.07;;;;;;;;;;5054260;28;20582;-79
2022/05/26 06:18:08;;;;;;;32.73;29.63;;;;;;;;;;5053468;28;20228;-79
2022/05/26 06:20:35;;;;;;;32.27;28.87;;;;;;;;;;5053722;28;20198;-79
2022/05/26 06:23:04;;;;;;;29.03;26.20;;;;;;;;;;5053247;28;20741;-79
2022/05/26 06:25:31;;;;;;;29.17;26.37;;;;;;;;;;5054000;28;20671;-79
2022/05/26 06:30:51;;;;;;;25.90;23.03;;;;;;;;;;5018103;28;20197;-80
2022/05/26 06:38:48;;;;;;;23.07;20.33;;;;;;;;;;5073458;28;20303;-79
2022/05/26 06:44:03;;;;;;;22.97;20.30;;;;;;;;;;5073019;28;20180;-80
2022/05/26 06:46:31;;;;;;;23.30;19.17;;;;;;;;;;5073429;28;20284;-79
2022/05/26 06:48:58;;;;;;;21.80;17.87;;;;;;;;;;5072806;28;20316;-79
2022/05/26 06:51:26;;;;;;;19.43;16.13;;;;;;;;;;5072863;28;20628;-79
2022/05/26 06:53:54;;;;;;;21.10;16.67;;;;;;;;;;5072794;28;20852;-79
2022/05/26 06:56:21;;;;;;;18.97;17.17;;;;;;;;;;5073267;28;20196;-79
2022/05/26 06:58:49;;;;;;;21.37;15.00;;;;;;;;;;5073060;28;20204;-79
2022/05/26 07:01:16;;;;;;;18.93;16.43;;;;;;;;;;5072905;28;20665;-79
2022/05/26 07:03:43;;;;;;;23.20;15.77;;;;;;;;;;5072606;28;20686;-79
2022/05/26 07:06:14;;;;;;;18.10;13.93;;;;;;;;;;5072762;28;20262;-80
2022/05/26 07:08:41;;;;;;;17.80;12.90;;;;;;;;;;5072540;28;20618;-79
2022/05/26 07:11:10;;;;;;;15.47;11.90;;;;;;;;;;5072694;28;20197;-80
2022/05/26 07:13:37;;;;;;;12.73;11.43;;;;;;;;;;5072168;28;20250;-80
2022/05/26 07:16:05;;;;;;;17.07;11.07;;;;;;;;;;5072710;28;20201;-80
2022/05/26 07:18:32;;;;;;;17.70;10.73;;;;;;;;;;5072574;28;20633;-80
2022/05/26 07:20:59;;;;;;;19.53;10.10;;;;;;;;;;5071885;28;20197;-80
2022/05/26 07:23:27;;;;;;;21.17;10.87;;;;;;;;;;5072396;28;20586;-80
2022/05/26 07:25:54;;;;;;;13.27;9.53;;;;;;;;;;5072434;28;20204;-80
2022/05/26 07:28:23;;;;;;;20.07;10.20;;;;;;;;;;5072456;28;20224;-80
2022/05/26 07:30:52;;;;;;;12.63;9.43;;;;;;;;;;5072283;28;20589;-80
2022/05/26 07:33:19;;;;;;;13.57;10.57;;;;;;;;;;5072405;28;20197;-80
2022/05/26 07:35:47;;;;;;;12.23;9.10;;;;;;;;;;5065955;28;20267;-80
2022/05/26 07:43:47;;;;;;;10.80;9.50;;;;;;;;;;5052404;28;20216;-81
2022/05/26 07:46:14;;;;;;;17.67;8.53;;;;;;;;;;5052026;28;20205;-80
2022/05/26 07:48:41;;;;;;;12.33;9.27;;;;;;;;;;5051789;28;20317;-80
2022/05/26 07:51:09;;;;;;;11.10;8.17;;;;;;;;;;5052375;28;20260;-80
2022/05/26 07:53:36;;;;;;;9.93;7.57;;;;;;;;;;5052230;28;20735;-80
2022/05/26 07:56:03;;;;;;;12.13;8.23;;;;;;;;;;5051939;28;20221;-80
2022/05/26 07:58:30;;;;;;;20.90;9.53;;;;;;;;;;5052059;28;20666;-80
2022/05/26 08:00:58;;;;;;;15.40;8.53;;;;;;;;;;5051946;28;20666;-80
2022/05/26 08:03:25;;;;;;;14.37;8.37;;;;;;;;;;5051982;28;20567;-80
2022/05/26 08:05:52;;;;;;;15.17;7.50;;;;;;;;;;5052253;28;20201;-80
2022/05/26 08:08:20;;;;;;;13.43;8.73;;;;;;;;;;5051609;28;20279;-80
2022/05/26 08:10:47;;;;;;;14.17;7.67;;;;;;;;;;5052141;28;20205;-80
2022/05/26 08:13:14;;;;;;;11.53;8.20;;;;;;;;;;5051878;28;20666;-80
2022/05/26 08:15:42;;;;;;;11.83;6.83;;;;;;;;;;5051589;28;20202;-80
2022/05/26 08:18:11;;;;;;;9.23;5.83;;;;;;;;;;5051561;28;20236;-80
2022/05/26 08:20:38;;;;;;;12.33;6.40;;;;;;;;;;5051754;28;20206;-80
2022/05/26 08:23:05;;;;;;;9.97;5.83;;;;;;;;;;5051548;28;20591;-80
2022/05/26 08:25:34;;;;;;;8.97;6.20;;;;;;;;;;5051616;28;20685;-80
2022/05/26 08:28:01;;;;;;;10.07;6.50;;;;;;;;;;5051471;28;20649;-80
2022/05/26 08:30:28;;;;;;;10.00;6.27;;;;;;;;;;5052117;28;20231;-80
2022/05/26 08:32:56;;;;;;;8.47;5.70;;;;;;;;;;5053705;28;20289;-80
2022/05/26 08:35:25;;;;;;;11.53;5.97;;;;;;;;;;5055853;28;20662;-80
2022/05/26 08:37:52;;;;;;;16.27;6.80;;;;;;;;;;5055843;28;20224;-80
2022/05/26 08:40:28;;;;;;;11.50;5.23;;;;;;;;;;5055708;28;20205;-80
2022/05/26 08:42:55;;;;;;;15.80;5.57;;;;;;;;;;5055477;28;20186;-80
2022/05/26 08:45:22;;;;;;;10.83;5.90;;;;;;;;;;5055484;28;20255;-80
2022/05/26 08:47:51;;;;;;;11.33;5.90;;;;;;;;;;5055172;28;20678;-80
2022/05/26 08:50:19;;;;;;;13.33;6.03;;;;;;;;;;5055387;28;20198;-80
2022/05/26 08:52:50;;;;;;;12.20;5.03;;;;;;;;;;5055293;28;20209;-80
2022/05/26 08:55:19;;;;;;;7.90;6.53;;;;;;;;;;5055620;28;20194;-80
2022/05/26 08:57:51;;;;;;;8.63;5.80;;;;;;;;;;5055147;28;20197;-80
2022/05/26 09:00:20;;;;;;;15.97;7.00;;;;;;;;;;5054958;28;20621;-80
2022/05/26 09:02:51;;;;;;;8.50;5.80;;;;;;;;;;5055020;28;20205;-80
2022/05/26 09:05:21;;;;;;;14.30;7.10;;;;;;;;;;5055305;28;20323;-80
2022/05/26 09:13:34;;;;;;;8.23;6.70;;;;;;;;;;5055216;28;20224;-80
2022/05/26 09:16:01;;;;;;;9.30;6.97;;;;;;;;;;5054994;28;20252;-79
2022/05/26 09:18:28;;;;;;;12.25;7.30;;;;;;;;;;5054907;28;20201;-79
2022/05/26 09:20:55;;;;;;;8.68;7.35;;;;;;;;;;5054606;28;20632;-80
2022/05/26 09:23:25;;;;;;;11.43;7.10;;;;;;;;;;5054796;28;20272;-80
2022/05/26 09:25:55;;;;;;;9.52;6.95;;;;;;;;;;5054754;28;20236;-80
2022/05/26 09:28:31;;;;;;;10.07;6.88;;;;;;;;;;5054659;28;20264;-80
2022/05/26 09:31:22;;;;;;;13.70;6.70;;;;;;;;;;5054735;28;20190;-80
2022/05/26 09:34:05;;;;;;;11.18;7.38;;;;;;;;;;5054587;28;20277;-80
2022/05/26 09:36:36;;;;;;;7.88;6.07;;;;;;;;;;5054824;28;20643;-80
2022/05/26 09:39:05;;;;;;;9.63;6.78;;;;;;;;;;5054612;28;20673;-81
2022/05/26 09:41:38;;;;;;;10.80;6.75;;;;;;;;;;5054399;28;20666;-81
2022/05/26 09:44:06;;;;;;;11.38;7.35;;;;;;;;;;5053520;28;20228;-80
2022/05/26 09:46:33;;;;;;;9.38;6.00;;;;;;;;;;5054310;28;20205;-80
2022/05/26 09:49:07;;;;;;;10.38;7.00;;;;;;;;;;5054114;28;20343;-80
2022/05/26 09:51:43;;;;;;;9.52;5.90;;;;;;;;;;5054207;28;20192;-80
2022/05/26 09:54:25;;;;;;;7.22;5.95;;;;;;;;;;5054341;28;20201;-80
2022/05/26 09:56:52;;;;;;;7.93;5.57;;;;;;;;;;5054181;28;20192;-80
2022/05/26 09:59:26;;;;;;;7.40;5.38;;;;;;;;;;5054023;28;20631;-80
2022/05/26 10:01:58;;;;;;;8.20;5.55;;;;;;;;;;5054165;28;20748;-80
2022/05/26 10:04:38;;;;;;;11.30;5.63;;;;;;;;;;5054128;28;20650;-80
2022/05/26 10:07:08;;;;;;;9.88;6.32;;;;;;;;;;5053979;28;20182;-80
2022/05/26 10:09:41;;;;;;;12.63;6.65;;;;;;;;;;5053930;28;20710;-80
2022/05/26 10:12:14;;;;;;;7.28;5.00;;;;;;;;;;5053911;28;20209;-80
2022/05/26 10:14:55;;;;;;;10.55;5.45;;;;;;;;;;5053950;28;20224;-80
2022/05/26 10:17:31;;;;;;;8.00;5.18;;;;;;;;;;5053527;28;20592;-80
2022/05/26 10:20:16;;;;;;;14.45;5.32;;;;;;;;;;5053655;28;20177;-80
2022/05/26 10:22:51;;;;;;;8.85;5.80;;;;;;;;;;5053573;28;20194;-80
2022/05/26 10:25:30;;;;;;;11.68;5.40;;;;;;;;;;5053674;28;20268;-80
2022/05/26 10:28:28;;;;;;;9.82;4.82;;;;;;;;;;5053513;28;20189;-80
2022/05/26 10:31:00;;;;;;;9.18;4.93;;;;;;;;;;5053885;28;20190;-79
2022/05/26 10:33:56;;;;;;;12.13;6.25;;;;;;;;;;5053368;28;20289;-80
2022/05/26 10:36:27;;;;;;;11.75;5.53;;;;;;;;;;5050378;28;20678;-80
2022/05/26 10:39:06;;;;;;;8.52;4.88;;;;;;;;;;5053220;28;20243;-80
2022/05/26 10:41:37;;;;;;;9.23;5.03;;;;;;;;;;5053635;28;20251;-80
2022/05/26 10:44:11;;;;;;;9.70;5.40;;;;;;;;;;5052856;28;20186;-80
2022/05/26 10:46:41;;;;;;;6.78;5.07;;;;;;;;;;5053264;28;20186;-80
2022/05/26 10:49:13;;;;;;;13.38;6.80;;;;;;;;;;5053192;28;20222;-80
2022/05/26 10:51:43;;;;;;;7.72;5.63;;;;;;;;;;5053207;28;20182;-80
2022/05/26 10:54:14;;;;;;;13.38;5.65;;;;;;;;;;5052638;28;20675;-80
2022/05/26 10:56:44;;;;;;;5.90;5.00;;;;;;;;;;5052924;28;20643;-80
2022/05/26 10:59:16;;;;;;;6.47;5.38;;;;;;;;;;5052756;28;20198;-80
2022/05/26 11:01:46;;;;;;;5.57;5.03;;;;;;;;;;5053245;28;20209;-80
2022/05/26 11:04:18;;;;;;;7.38;5.68;;;;;;;;;;5052508;28;20288;-80
2022/05/26 11:06:47;;;;;;;7.93;5.78;;;;;;;;;;5052854;28;20662;-80
2022/05/26 11:09:17;;;;;;;7.95;4.75;;;;;;;;;;5052745;28;20312;-80
2022/05/26 11:11:49;;;;;;;8.00;5.70;;;;;;;;;;5052821;28;20186;-80
2022/05/26 11:19:50;;;;;;;9.93;5.22;;;;;;;;;;5052704;28;20177;-80
2022/05/26 11:22:18;;;;;;;15.63;6.35;;;;;;;;;;5052505;28;20247;-80
2022/05/26 11:24:48;;;;;;;7.95;5.68;;;;;;;;;;5052950;28;20252;-80
2022/05/26 11:27:20;;;;;;;10.80;6.43;;;;;;;;;;5052684;28;20308;-80
2022/05/26 11:29:48;;;;;;;8.25;5.55;;;;;;;;;;5052532;28;20279;-80
2022/05/26 11:37:59;;;;;;;14.48;7.18;;;;;;;;;;5051958;28;20181;-81
2022/05/26 11:40:32;;;;;;;9.63;6.05;;;;;;;;;;5052303;28;20185;-80
2022/05/26 11:43:01;;;;;;;6.18;5.60;;;;;;;;;;5052044;28;20712;-80
2022/05/26 11:45:30;;;;;;;10.57;5.55;;;;;;;;;;5052251;28;20228;-80
2022/05/26 11:47:59;;;;;;;7.22;5.20;;;;;;;;;;5052176;28;20193;-80
2022/05/26 11:50:59;;;;;;;15.93;6.38;;;;;;;;;;5052029;28;20233;-80
2022/05/26 11:53:44;;;;;;;7.22;5.22;;;;;;;;;;5052240;28;20662;-80
2022/05/26 11:56:39;;;;;;;5.63;5.10;;;;;;;;;;5051977;28;20186;-80
2022/05/26 11:59:45;;;;;;;13.10;5.32;;;;;;;;;;5046341;28;20193;-80
2022/05/26 12:02:28;;;;;;;8.00;4.85;;;;;;;;;;5051792;28;20272;-80
2022/05/26 12:04:56;;;;;;;6.25;5.22;;;;;;;;;;5050531;28;20201;-80
2022/05/26 12:07:40;;;;;;;9.43;5.38;;;;;;;;;;5051118;28;20233;-80
2022/05/26 12:10:24;;;;;;;6.60;5.95;;;;;;;;;;5051813;28;20206;-80
2022/05/26 12:12:51;;;;;;;6.47;4.97;;;;;;;;;;5051408;28;20252;-80
2022/05/26 12:15:22;;;;;;;7.93;5.07;;;;;;;;;;5051762;28;20194;-80
2022/05/26 12:17:50;;;;;;;7.10;5.00;;;;;;;;;;5051599;28;20252;-80
2022/05/26 12:20:34;;;;;;;7.55;5.03;;;;;;;;;;5052057;28;20193;-80
2022/05/26 12:23:25;;;;;;;9.40;4.85;;;;;;;;;;5051696;28;20248;-80
2022/05/26 12:26:24;;;;;;;7.28;5.13;;;;;;;;;;5051781;28;20186;-80
2022/05/26 12:28:51;;;;;;;6.50;4.90;;;;;;;;;;5051495;28;20221;-80
2022/05/26 12:31:20;;;;;;;11.75;4.68;;;;;;;;;;5051930;28;20637;-80
2022/05/26 12:34:13;;;;;;;7.88;4.68;;;;;;;;;;5051176;28;20293;-80
2022/05/26 12:37:01;;;;;;;10.73;5.40;;;;;;;;;;5051955;28;20221;-80
2022/05/26 12:40:01;;;;;;;10.90;4.75;;;;;;;;;;5051446;28;20186;-80
2022/05/26 12:42:44;;;;;;;7.38;4.35;;;;;;;;;;5051641;28;20259;-80
2022/05/26 12:45:20;;;;;;;12.77;4.60;;;;;;;;;;5051918;28;20181;-80
2022/05/26 12:48:10;;;;;;;7.07;4.15;;;;;;;;;;5051315;28;20650;-80
2022/05/26 12:50:39;;;;;;;7.82;5.18;;;;;;;;;;5051753;28;20224;-80
2022/05/26 12:53:12;;;;;;;5.45;4.65;;;;;;;;;;5051036;28;20190;-80
2022/05/26 12:55:42;;;;;;;10.52;5.18;;;;;;;;;;5051478;28;20718;-80
2022/05/26 12:58:11;;;;;;;5.40;4.72;;;;;;;;;;5051474;28;20194;-80
2022/05/26 13:00:40;;;;;;;10.68;5.35;;;;;;;;;;5051559;28;20202;-80
2022/05/26 13:03:10;;;;;;;7.55;4.65;;;;;;;;;;5051478;28;20202;-80
2022/05/26 13:05:40;;;;;;;8.48;4.68;;;;;;;;;;5051381;28;20186;-80
2022/05/26 13:08:11;;;;;;;10.43;5.13;;;;;;;;;;5051099;28;20194;-80
2022/05/26 13:10:39;;;;;;;7.00;4.28;;;;;;;;;;5051227;28;20327;-80
2022/05/26 13:13:20;;;;;;;8.52;4.45;;;;;;;;;;5051449;28;20272;-80
2022/05/26 13:15:48;;;;;;;7.90;4.78;;;;;;;;;;5051263;28;20661;-80
2022/05/26 13:18:20;;;;;;;7.53;3.88;;;;;;;;;;5052145;28;20225;-80
2022/05/26 13:20:47;;;;;;;13.82;4.40;;;;;;;;;;5054651;28;20202;-80
2022/05/26 13:23:27;;;;;;;10.57;4.60;;;;;;;;;;5054944;28;20202;-80
2022/05/26 13:25:54;;;;;;;7.82;4.47;;;;;;;;;;5055112;28;20225;-80
2022/05/26 13:28:27;;;;;;;6.78;4.60;;;;;;;;;;5054832;28;20638;-80
2022/05/26 13:33:43;;;;;;;12.48;5.60;;;;;;;;;;5054579;28;20192;-80
2022/05/26 13:36:17;;;;;;;5.63;4.50;;;;;;;;;;5054957;28;20193;-80
2022/05/26 13:38:46;;;;;;;9.57;4.72;;;;;;;;;;5054458;28;20186;-80
2022/05/26 13:41:19;;;;;;;7.18;4.35;;;;;;;;;;5054825;28;20210;-80
2022/05/26 13:43:47;;;;;;;6.18;4.47;;;;;;;;;;5054265;28;20605;-80
2022/05/26 13:46:20;;;;;;;5.57;3.88;;;;;;;;;;5054915;28;20784;-80
2022/05/26 13:48:54;;;;;;;8.15;5.43;;;;;;;;;;5054129;28;20243;-80
2022/05/26 13:51:24;;;;;;;9.02;4.25;;;;;;;;;;5054466;28;20178;-80
2022/05/26 13:54:12;;;;;;;8.57;5.05;;;;;;;;;;5053983;28;20198;-80
2022/05/26 13:56:39;;;;;;;5.47;3.78;;;;;;;;;;5053979;28;20197;-79
2022/05/26 13:59:09;;;;;;;8.35;4.05;;;;;;;;;;5053977;28;20193;-80
2022/05/26 14:01:40;;;;;;;6.13;4.60;;;;;;;;;;5054360;28;20233;-80
2022/05/26 14:04:21;;;;;;;5.55;4.07;;;;;;;;;;5053889;28;20201;-80
2022/05/26 14:06:48;;;;;;;4.78;3.92;;;;;;;;;;5054216;28;20197;-80
2022/05/26 14:09:29;;;;;;;5.63;3.78;;;;;;;;;;5054175;28;20221;-80
2022/05/26 14:12:03;;;;;;;10.20;4.97;;;;;;;;;;5054237;28;20186;-80
2022/05/26 14:14:39;;;;;;;10.93;4.65;;;;;;;;;;5053812;28;20280;-80
2022/05/26 14:17:09;;;;;;;7.30;4.32;;;;;;;;;;5053328;28;20229;-80
2022/05/26 14:19:40;;;;;;;8.75;4.80;;;;;;;;;;5053731;28;20230;-80
2022/05/26 14:22:07;;;;;;;6.45;4.20;;;;;;;;;;5053091;28;20259;-80
2022/05/26 14:24:38;;;;;;;11.35;4.28;;;;;;;;;;5053590;28;20224;-80
2022/05/26 14:27:15;;;;;;;9.32;3.55;;;;;;;;;;5053647;28;20669;-80
2022/05/26 14:29:44;;;;;;;6.03;4.45;;;;;;;;;;5053277;28;20234;-80
2022/05/26 14:32:17;;;;;;;9.68;3.85;;;;;;;;;;5053746;28;20667;-79
2022/05/26 14:34:48;;;;;;;6.93;4.25;;;;;;;;;;5053174;28;20194;-80
2022/05/26 14:37:17;;;;;;;7.75;5.10;;;;;;;;;;5053560;28;20603;-79
2022/05/26 14:39:44;;;;;;;7.60;4.43;;;;;;;;;;5053614;28;20202;-80
2022/05/26 14:42:15;;;;;;;5.30;4.22;;;;;;;;;;5053589;28;20263;-80
2022/05/26 14:44:43;;;;;;;7.25;4.32;;;;;;;;;;5052978;28;20619;-80
2022/05/26 14:47:10;;;;;;;6.05;3.83;;;;;;;;;;5053500;28;20275;-80
2022/05/26 14:49:37;;;;;;;6.93;4.63;;;;;;;;;;5052989;28;20351;-80
2022/05/26 14:52:08;;;;;;;4.78;3.95;;;;;;;;;;5053393;28;20666;-80
2022/05/26 14:57:22;;;;;;;6.55;4.47;;;;;;;;;;5053314;28;20239;-80
2022/05/26 14:59:50;;;;;;;5.90;4.07;;;;;;;;;;5071521;28;20282;-80
2022/05/26 15:02:18;;;;;;;5.43;4.13;;;;;;;;;;5072068;28;20662;-80
2022/05/26 15:04:45;;;;;;;4.70;4.15;;;;;;;;;;5072681;28;20200;-80
2022/05/26 15:07:14;;;;;;;4.30;4.00;;;;;;;;;;5072730;28;20193;-79
2022/05/26 15:09:42;;;;;;;5.45;3.70;;;;;;;;;;5072549;28;20217;-80
2022/05/26 15:12:10;;;;;;;7.97;4.13;;;;;;;;;;5072630;28;20728;-80
2022/05/26 15:14:38;;;;;;;6.30;4.22;;;;;;;;;;5072873;28;20235;-80
2022/05/26 15:17:13;;;;;;;10.55;4.35;;;;;;;;;;5072308;28;20298;-80
2022/05/26 15:19:42;;;;;;;6.30;4.20;;;;;;;;;;5068229;28;20234;-80
2022/05/26 15:22:10;;;;;;;6.63;4.20;;;;;;;;;;5072849;28;20204;-80
2022/05/26 15:24:39;;;;;;;8.65;4.82;;;;;;;;;;5072377;28;20212;-80
2022/05/26 15:27:07;;;;;;;5.38;3.95;;;;;;;;;;5072184;28;20571;-80
2022/05/26 15:29:34;;;;;;;8.18;4.35;;;;;;;;;;5072488;28;20201;-80
2022/05/26 15:32:01;;;;;;;9.10;4.25;;;;;;;;;;5072799;28;20193;-80
2022/05/26 15:34:29;;;;;;;9.43;4.13;;;;;;;;;;5072318;28;20290;-80
2022/05/26 15:36:56;;;;;;;9.68;4.38;;;;;;;;;;5072559;28;20225;-80
2022/05/26 15:39:23;;;;;;;6.22;4.10;;;;;;;;;;5064862;28;20636;-80
2022/05/26 15:41:54;;;;;;;7.72;4.40;;;;;;;;;;5051743;28;20718;-80